Terminal Aerodrome Forecast
Issued by NWS Charleston, SC

Home | Current Version | Previous Version | Text Only | Print | Product List | Glossary On
Versions: 1 2 3 4 5 6 7 8 9 10 11 12 13 14 15 16 17 18 19 20 21 22 23 24 25 26 27 28 29 30
798
FTUS42 KCHS 041125
TAFCHS
TAF
KCHS 041125Z 0412/0512 27008KT P6SM VCSH SCT015 BKN050
     FM041600 26010G16KT P6SM FEW060
     FM050000 26006KT P6SM SCT200=

USA.gov is the U.S. government's official web portal to all federal, state and local government web resources and services.